createdAt,value
2018-03-01T00:01:10.552Z,-7.48
2018-03-01T00:03:38.225Z,-7.29
2018-03-01T00:06:05.861Z,-7.23
2018-03-01T00:08:33.582Z,-7.38
2018-03-01T00:11:01.213Z,-7.32
2018-03-01T00:13:28.880Z,-7.30
2018-03-01T00:15:56.512Z,-7.31
2018-03-01T00:18:24.181Z,-7.40
2018-03-01T00:20:51.823Z,-7.25
2018-03-01T00:23:19.501Z,-7.43
2018-03-01T00:25:47.149Z,-7.39
2018-03-01T00:28:14.815Z,-7.23
2018-03-01T00:30:42.455Z,-7.19
2018-03-01T00:33:10.208Z,-7.24
2018-03-01T00:35:37.939Z,-7.36
2018-03-01T00:38:05.612Z,-7.39
2018-03-01T00:40:33.234Z,-7.43
2018-03-01T00:43:00.943Z,-7.49
2018-03-01T00:45:28.585Z,-7.45
2018-03-01T00:47:56.261Z,-7.38
2018-03-01T00:50:23.900Z,-7.31
2018-03-01T00:52:51.569Z,-7.40
2018-03-01T00:55:19.197Z,-7.52
2018-03-01T00:57:46.885Z,-7.47
2018-03-01T01:00:14.675Z,-7.51
2018-03-01T01:02:42.306Z,-7.50
2018-03-01T01:05:10.084Z,-7.80
2018-03-01T01:07:37.708Z,-7.75
2018-03-01T01:10:05.380Z,-7.54
2018-03-01T01:12:32.999Z,-7.57
2018-03-01T01:15:00.814Z,-7.55
2018-03-01T01:17:28.460Z,-7.56
2018-03-01T01:19:56.154Z,-7.60
2018-03-01T01:22:23.793Z,-7.58
2018-03-01T01:24:51.474Z,-7.71
2018-03-01T01:27:19.106Z,-7.93
2018-03-01T01:29:46.781Z,-7.79
2018-03-01T01:32:14.545Z,-7.75
2018-03-01T01:34:42.223Z,-7.69
2018-03-01T01:37:09.860Z,-7.67
2018-03-01T01:39:37.631Z,-7.90
2018-03-01T01:42:05.276Z,-7.77
2018-03-01T01:44:32.955Z,-8.17
2018-03-01T01:47:00.599Z,-8.01
2018-03-01T01:49:28.282Z,-8.02
2018-03-01T01:51:55.992Z,-8.10
2018-03-01T01:54:23.656Z,-7.98
2018-03-01T01:56:51.295Z,-7.95
2018-03-01T01:59:18.981Z,-7.96
2018-03-01T02:01:46.606Z,-8.17
2018-03-01T02:04:14.452Z,-7.99
2018-03-01T02:06:42.101Z,-7.94
2018-03-01T02:09:09.776Z,-8.24
2018-03-01T02:11:37.405Z,-8.11
2018-03-01T02:14:05.083Z,-8.07
2018-03-01T02:16:32.713Z,-8.14
2018-03-01T02:19:00.376Z,-7.97
2018-03-01T02:21:28.015Z,-7.88
2018-03-01T02:23:55.812Z,-8.08
2018-03-01T02:26:23.550Z,-8.41
2018-03-01T02:28:51.228Z,-8.14
2018-03-01T02:31:18.873Z,-8.21
2018-03-01T02:33:46.550Z,-8.43
2018-03-01T02:39:07.429Z,-8.08
2018-03-01T02:41:35.096Z,-8.38
2018-03-01T02:44:02.770Z,-8.55
2018-03-01T02:46:30.406Z,-8.35
2018-03-01T02:48:58.083Z,-8.32
2018-03-01T02:51:25.708Z,-8.45
2018-03-01T02:53:53.386Z,-8.64
2018-03-01T02:56:21.101Z,-8.66
2018-03-01T02:58:48.725Z,-8.52
2018-03-01T03:01:16.410Z,-8.37
2018-03-01T03:03:44.399Z,-8.07
2018-03-01T03:06:12.072Z,-7.93
2018-03-01T03:08:39.715Z,-8.01
2018-03-01T03:11:07.389Z,-7.97
2018-03-01T03:13:35.016Z,-8.05
2018-03-01T03:16:02.693Z,-8.20
2018-03-01T03:18:30.338Z,-8.04
2018-03-01T03:20:58.077Z,-7.99
2018-03-01T03:23:25.707Z,-8.06
2018-03-01T03:25:53.377Z,-8.02
2018-03-01T03:28:21.006Z,-8.08
2018-03-01T03:30:48.695Z,-8.40
2018-03-01T03:33:16.458Z,-8.31
2018-03-01T03:35:44.133Z,-8.38
2018-03-01T03:38:11.909Z,-8.30
2018-03-01T03:40:39.587Z,-8.41
2018-03-01T03:43:07.217Z,-8.62
2018-03-01T03:45:34.885Z,-8.52
2018-03-01T03:48:02.513Z,-8.56
2018-03-01T03:50:30.269Z,-8.58
2018-03-01T03:52:57.905Z,-8.68
2018-03-01T03:55:25.582Z,-8.60
2018-03-01T03:57:53.295Z,-8.67
2018-03-01T04:00:20.979Z,-8.68
2018-03-01T04:02:48.620Z,-8.74
2018-03-01T04:05:16.372Z,-8.77
2018-03-01T04:07:43.996Z,-8.59
2018-03-01T04:10:11.679Z,-8.56
2018-03-01T04:12:39.303Z,-8.63
2018-03-01T04:15:07.103Z,-8.66
2018-03-01T04:17:34.841Z,-8.73
2018-03-01T04:20:02.540Z,-8.85
2018-03-01T04:22:30.306Z,-8.97
2018-03-01T04:24:57.970Z,-8.99
2018-03-01T04:27:25.626Z,-8.96
2018-03-01T04:29:53.326Z,-9.01
2018-03-01T04:32:20.974Z,-8.96
2018-03-01T04:34:48.652Z,-8.80
2018-03-01T04:37:16.286Z,-8.91
2018-03-01T04:39:43.919Z,-9.02
2018-03-01T04:42:11.591Z,-8.89
2018-03-01T04:44:39.221Z,-8.97
2018-03-01T04:47:06.896Z,-9.06
2018-03-01T04:49:34.605Z,-8.87
2018-03-01T04:52:02.279Z,-8.73
2018-03-01T04:54:29.921Z,-8.77
2018-03-01T04:56:57.652Z,-8.63
2018-03-01T04:59:25.341Z,-8.80
2018-03-01T05:01:53.162Z,-8.77
2018-03-01T05:04:20.803Z,-8.85
2018-03-01T05:06:48.514Z,-8.79
2018-03-01T05:09:16.305Z,-9.06
2018-03-01T05:11:43.982Z,-9.03
2018-03-01T05:14:11.608Z,-9.04
2018-03-01T05:16:39.311Z,-8.98
2018-03-01T05:19:06.942Z,-9.06
2018-03-01T05:21:34.729Z,-9.10
2018-03-01T05:24:02.352Z,-9.15
2018-03-01T05:26:30.047Z,-9.20
2018-03-01T05:28:57.702Z,-9.20
2018-03-01T05:31:25.395Z,-9.21
2018-03-01T05:33:53.063Z,-9.22
2018-03-01T05:36:20.730Z,-9.17
2018-03-01T05:38:48.385Z,-9.05
2018-03-01T05:41:16.069Z,-9.04
2018-03-01T05:43:43.742Z,-8.85
2018-03-01T05:46:11.412Z,-8.89
2018-03-01T05:48:39.072Z,-9.31
2018-03-01T05:51:06.797Z,-9.64
2018-03-01T05:53:34.440Z,-9.82
2018-03-01T05:56:02.171Z,-9.95
2018-03-01T05:58:30.184Z,-10.05
2018-03-01T06:00:57.991Z,-10.16
2018-03-01T06:03:25.696Z,-10.26
2018-03-01T06:05:53.551Z,-10.28
2018-03-01T06:08:21.267Z,-10.27
2018-03-01T06:10:49.014Z,-10.26
2018-03-01T06:13:16.705Z,-10.28
2018-03-01T06:15:44.437Z,-10.31
2018-03-01T06:18:12.174Z,-10.30
2018-03-01T06:20:39.869Z,-10.24
2018-03-01T06:23:07.662Z,-10.17
2018-03-01T06:25:35.377Z,-10.07
2018-03-01T06:28:03.175Z,-9.91
2018-03-01T06:30:30.911Z,-9.75
2018-03-01T06:32:58.671Z,-9.72
2018-03-01T06:35:26.320Z,-9.68
2018-03-01T06:37:54.102Z,-9.64
2018-03-01T06:40:21.798Z,-9.57
2018-03-01T06:42:49.541Z,-9.56
2018-03-01T06:45:17.246Z,-9.42
2018-03-01T06:47:45.002Z,-9.34
2018-03-01T06:50:12.768Z,-9.19
2018-03-01T06:52:40.496Z,-9.04
2018-03-01T06:55:08.211Z,-8.98
2018-03-01T06:57:35.956Z,-8.81
2018-03-01T07:00:03.772Z,-8.66
2018-03-01T07:05:22.081Z,-8.37
2018-03-01T07:07:50.501Z,-8.27
2018-03-01T07:10:18.391Z,-8.21
2018-03-01T07:12:48.325Z,-8.07
2018-03-01T07:15:16.012Z,-7.90
2018-03-01T07:17:46.332Z,-7.80
2018-03-01T07:20:15.007Z,-7.74
2018-03-01T07:22:44.077Z,-7.82
2018-03-01T07:25:14.932Z,-7.63
2018-03-01T07:27:42.677Z,-7.71
2018-03-01T07:30:11.993Z,-7.78
2018-03-01T07:32:41.092Z,-7.85
2018-03-01T07:35:10.116Z,-7.83
2018-03-01T07:37:37.984Z,-7.68
2018-03-01T07:40:05.934Z,-7.33
2018-03-01T07:42:33.894Z,-7.25
2018-03-01T07:45:02.451Z,-7.36
2018-03-01T07:47:31.822Z,-7.10
2018-03-01T07:50:01.733Z,-7.28
2018-03-01T07:52:29.550Z,-7.32
2018-03-01T07:54:58.261Z,-7.04
2018-03-01T07:57:26.554Z,-6.92
2018-03-01T07:59:54.474Z,-6.78
2018-03-01T08:02:25.855Z,-6.52
2018-03-01T08:04:54.483Z,-6.43
2018-03-01T08:07:24.720Z,-6.40
2018-03-01T08:09:52.831Z,-6.67
2018-03-01T08:12:20.634Z,-6.54
2018-03-01T08:14:51.962Z,-6.60
2018-03-01T08:17:19.947Z,-6.55
2018-03-01T08:19:47.975Z,-6.35
2018-03-01T08:22:17.069Z,-5.91
2018-03-01T08:24:46.686Z,-5.81
2018-03-01T08:27:16.281Z,-6.14
2018-03-01T08:29:46.322Z,-6.17
2018-03-01T08:32:15.477Z,-6.02
2018-03-01T08:34:44.354Z,-5.53
2018-03-01T08:37:12.421Z,-5.90
2018-03-01T08:39:41.492Z,-5.77
2018-03-01T08:42:10.283Z,-5.56
2018-03-01T08:44:38.714Z,-5.65
2018-03-01T08:47:06.970Z,-5.38
2018-03-01T08:49:35.317Z,-5.85
2018-03-01T08:52:03.477Z,-5.36
2018-03-01T08:54:33.022Z,-5.02
2018-03-01T08:57:01.384Z,-5.08
2018-03-01T08:59:29.143Z,-5.41
2018-03-01T09:02:00.681Z,-5.39
2018-03-01T09:04:28.455Z,-5.16
2018-03-01T09:06:56.508Z,-4.88
2018-03-01T09:09:24.619Z,-5.09
2018-03-01T09:11:54.230Z,-4.67
2018-03-01T09:14:22.652Z,-4.49
2018-03-01T09:16:51.527Z,-4.48
2018-03-01T09:19:20.602Z,-4.65
2018-03-01T09:21:54.039Z,-4.28
2018-03-01T09:24:22.587Z,-4.20
2018-03-01T09:26:52.912Z,-4.28
2018-03-01T09:29:22.659Z,-4.27
2018-03-01T09:31:51.087Z,-4.67
2018-03-01T09:34:19.668Z,-4.71
2018-03-01T09:36:50.289Z,-4.51
2018-03-01T09:39:20.214Z,-4.55
2018-03-01T09:41:50.774Z,-4.09
2018-03-01T09:44:18.825Z,-4.28
2018-03-01T09:46:47.490Z,-4.26
2018-03-01T09:49:15.359Z,-4.26
2018-03-01T09:51:44.041Z,-4.17
2018-03-01T09:54:12.710Z,-4.32
2018-03-01T09:56:41.365Z,-4.15
2018-03-01T09:59:12.777Z,-3.81
2018-03-01T10:01:41.984Z,-3.70
2018-03-01T10:04:11.332Z,-3.56
2018-03-01T10:06:40.223Z,-3.45
2018-03-01T10:09:09.327Z,-3.44
2018-03-01T10:11:38.481Z,-3.66
2018-03-01T10:14:07.111Z,-3.54
2018-03-01T10:16:36.645Z,-3.83
2018-03-01T10:19:05.962Z,-3.70
2018-03-01T10:21:35.465Z,-3.68
2018-03-01T10:24:04.374Z,-3.40
2018-03-01T10:26:33.039Z,-3.40
2018-03-01T10:29:01.791Z,-3.64
2018-03-01T10:31:32.147Z,-3.65
2018-03-01T10:34:00.550Z,-3.31
2018-03-01T10:36:28.978Z,-3.21
2018-03-01T10:38:57.834Z,-3.18
2018-03-01T10:41:27.054Z,-3.43
2018-03-01T10:43:55.131Z,-3.01
2018-03-01T10:46:22.890Z,-3.10
2018-03-01T10:48:51.752Z,-3.14
2018-03-01T10:51:19.725Z,-3.15
2018-03-01T10:53:48.488Z,-3.14
2018-03-01T10:56:17.442Z,-2.91
2018-03-01T10:58:45.292Z,-2.50
2018-03-01T11:01:19.484Z,-2.77
2018-03-01T11:03:47.492Z,-3.01
2018-03-01T11:06:15.677Z,-2.88
2018-03-01T11:08:45.450Z,-2.74
2018-03-01T11:11:14.297Z,-2.51
2018-03-01T11:13:42.169Z,-2.32
2018-03-01T11:16:11.561Z,-2.48
2018-03-01T11:18:40.039Z,-2.74
2018-03-01T11:21:08.214Z,-3.00
2018-03-01T11:23:36.104Z,-3.11
2018-03-01T11:26:05.187Z,-3.68
2018-03-01T11:28:34.049Z,-3.31
2018-03-01T11:31:03.946Z,-2.96
2018-03-01T11:33:33.057Z,-2.94
2018-03-01T11:36:01.870Z,-2.82
2018-03-01T11:38:30.258Z,-3.29
2018-03-01T11:40:59.694Z,-3.45
2018-03-01T11:43:28.904Z,-3.44
2018-03-01T11:45:57.538Z,-3.42
2018-03-01T11:48:25.694Z,-3.28
2018-03-01T11:50:55.629Z,-3.23
2018-03-01T11:53:25.658Z,-3.01
2018-03-01T11:55:53.942Z,-3.14
2018-03-01T11:58:23.703Z,-3.31
2018-03-01T12:00:52.784Z,-3.11
2018-03-01T12:03:22.007Z,-3.17
2018-03-01T12:05:50.854Z,-2.96
2018-03-01T12:08:19.931Z,-3.00
2018-03-01T12:10:49.886Z,-3.04
2018-03-01T12:13:18.161Z,-2.74
2018-03-01T12:15:48.233Z,-2.96
2018-03-01T12:18:16.116Z,-2.81
2018-03-01T12:20:45.285Z,-2.70
2018-03-01T12:23:14.433Z,-2.86
2018-03-01T12:25:43.161Z,-2.83
2018-03-01T12:28:11.057Z,-2.76
2018-03-01T12:30:39.290Z,-2.94
2018-03-01T12:33:11.700Z,-2.74
2018-03-01T12:35:40.900Z,-2.74
2018-03-01T12:38:09.572Z,-2.75
2018-03-01T12:40:40.987Z,-2.61
2018-03-01T12:43:09.199Z,-2.66
2018-03-01T12:45:38.429Z,-2.64
2018-03-01T12:48:06.566Z,-2.28
2018-03-01T12:50:34.483Z,-2.46
2018-03-01T12:53:03.306Z,-2.55
2018-03-01T12:55:32.155Z,-2.26
2018-03-01T12:58:00.819Z,-2.50
2018-03-01T13:00:30.419Z,-2.43
2018-03-01T13:02:58.763Z,-2.68
2018-03-01T13:05:29.149Z,-2.51
2018-03-01T13:07:59.197Z,-2.29
2018-03-01T13:10:33.341Z,-2.16
2018-03-01T13:13:01.907Z,-2.10
2018-03-01T13:15:31.463Z,-1.87
2018-03-01T13:18:01.961Z,-1.73
2018-03-01T13:20:30.649Z,-1.78
2018-03-01T13:22:59.799Z,-1.87
2018-03-01T13:25:30.458Z,-2.04
2018-03-01T13:28:02.595Z,-1.95
2018-03-01T13:30:41.104Z,-2.15
2018-03-01T13:33:15.788Z,-2.09
2018-03-01T13:35:44.334Z,-2.31
2018-03-01T13:38:12.397Z,-2.38
2018-03-01T13:40:42.543Z,-2.55
2018-03-01T13:43:30.155Z,-2.55
2018-03-01T13:46:02.147Z,-2.53
2018-03-01T13:48:29.999Z,-2.62
2018-03-01T13:50:58.735Z,-2.77
2018-03-01T13:53:28.062Z,-2.37
2018-03-01T13:55:58.006Z,-2.18
2018-03-01T13:58:26.998Z,-2.26
2018-03-01T14:00:56.686Z,-2.53
2018-03-01T14:03:28.442Z,-2.77
2018-03-01T14:09:04.191Z,-2.57
2018-03-01T14:11:31.956Z,-2.39
2018-03-01T14:14:04.259Z,-2.50
2018-03-01T14:16:32.051Z,-2.50
2018-03-01T14:19:15.559Z,-2.53
2018-03-01T14:21:49.886Z,-2.65
2018-03-01T14:24:23.112Z,-2.75
2018-03-01T14:26:54.549Z,-2.78
2018-03-01T14:32:22.247Z,-2.55
2018-03-01T14:34:49.979Z,-2.63
2018-03-01T14:37:17.682Z,-2.67
2018-03-01T14:39:45.366Z,-2.75
2018-03-01T14:42:13.167Z,-2.53
2018-03-01T14:44:40.909Z,-2.60
2018-03-01T14:47:08.679Z,-2.63
2018-03-01T14:49:36.361Z,-2.62
2018-03-01T14:52:04.067Z,-2.62
2018-03-01T14:54:31.732Z,-2.87
2018-03-01T14:56:59.446Z,-2.91
2018-03-01T14:59:27.136Z,-3.08
2018-03-01T15:01:54.875Z,-2.95
2018-03-01T15:04:22.593Z,-2.97
2018-03-01T15:06:50.295Z,-2.90
2018-03-01T15:09:17.959Z,-2.82
2018-03-01T15:11:45.747Z,-2.87
2018-03-01T15:14:13.426Z,-3.11
2018-03-01T15:16:41.227Z,-2.93
2018-03-01T15:19:08.894Z,-2.71
2018-03-01T15:21:36.592Z,-2.85
2018-03-01T15:24:04.276Z,-2.60
2018-03-01T15:26:32.026Z,-2.89
2018-03-01T15:28:59.694Z,-2.90
2018-03-01T15:31:27.458Z,-3.10
2018-03-01T15:33:55.150Z,-3.13
2018-03-01T15:36:22.840Z,-3.15
2018-03-01T15:38:50.507Z,-3.24
2018-03-01T15:41:18.247Z,-3.22
2018-03-01T15:43:45.948Z,-3.35
2018-03-01T15:46:13.817Z,-3.15
2018-03-01T15:48:41.517Z,-3.27
2018-03-01T15:51:09.214Z,-3.24
2018-03-01T15:53:36.908Z,-3.59
2018-03-01T15:56:04.570Z,-3.44
2018-03-01T15:58:32.237Z,-3.59
2018-03-01T16:00:59.914Z,-3.51
2018-03-01T16:03:27.594Z,-3.60
2018-03-01T16:05:55.237Z,-3.56
2018-03-01T16:08:22.941Z,-3.73
2018-03-01T16:10:50.589Z,-3.91
2018-03-01T16:13:18.290Z,-3.65
2018-03-01T16:15:59.621Z,-3.63
2018-03-01T16:18:46.256Z,-3.76
2018-03-01T16:21:28.306Z,-3.48
2018-03-01T16:23:56.012Z,-3.54
2018-03-01T16:26:23.755Z,-3.39
2018-03-01T16:28:51.463Z,-3.34
2018-03-01T16:31:19.164Z,-3.43
2018-03-01T16:33:46.858Z,-3.45
2018-03-01T16:36:14.581Z,-3.51
2018-03-01T16:38:42.282Z,-3.68
2018-03-01T16:41:10.046Z,-3.72
2018-03-01T16:43:37.796Z,-3.87
2018-03-01T16:46:05.447Z,-3.80
2018-03-01T16:48:33.134Z,-3.91
2018-03-01T16:51:00.842Z,-4.16
2018-03-01T16:53:28.671Z,-4.09
2018-03-01T16:55:56.330Z,-4.36
2018-03-01T16:58:24.202Z,-4.37
2018-03-01T17:00:52.011Z,-3.89
2018-03-01T17:03:19.839Z,-3.78
2018-03-01T17:05:47.571Z,-3.99
2018-03-01T17:08:15.515Z,-4.11
2018-03-01T17:10:43.242Z,-4.17
2018-03-01T17:13:10.970Z,-3.95
2018-03-01T17:15:38.767Z,-3.95
2018-03-01T17:18:06.419Z,-4.35
2018-03-01T17:20:34.163Z,-4.43
2018-03-01T17:23:01.876Z,-4.60
2018-03-01T17:25:29.660Z,-4.41
2018-03-01T17:27:57.347Z,-4.33
2018-03-01T17:30:25.020Z,-4.55
2018-03-01T17:32:52.748Z,-4.78
2018-03-01T17:35:20.398Z,-4.69
2018-03-01T17:37:48.081Z,-4.55
2018-03-01T17:40:15.770Z,-4.86
2018-03-01T17:42:43.487Z,-4.70
2018-03-01T17:45:11.198Z,-4.77
2018-03-01T17:47:38.960Z,-4.65
2018-03-01T17:50:06.635Z,-4.65
2018-03-01T17:52:34.321Z,-4.70
2018-03-01T17:55:01.964Z,-4.61
2018-03-01T17:57:29.927Z,-4.60
2018-03-01T17:59:57.572Z,-4.85
2018-03-01T18:02:25.261Z,-4.97
2018-03-01T18:04:52.915Z,-4.94
2018-03-01T18:07:20.563Z,-4.82
2018-03-01T18:09:48.237Z,-4.79
2018-03-01T18:12:15.880Z,-4.86
2018-03-01T18:14:43.588Z,-5.01
2018-03-01T18:17:11.252Z,-5.04
2018-03-01T18:19:38.934Z,-4.96
2018-03-01T18:22:08.027Z,-4.90
2018-03-01T18:24:36.397Z,-4.91
2018-03-01T18:27:05.033Z,-5.13
2018-03-01T18:29:33.793Z,-4.84
2018-03-01T18:32:02.293Z,-4.72
2018-03-01T18:34:30.716Z,-4.90
2018-03-01T18:36:58.798Z,-5.06
2018-03-01T18:39:30.065Z,-4.88
2018-03-01T18:41:58.187Z,-4.80
2018-03-01T18:44:26.738Z,-4.92
2018-03-01T18:46:54.915Z,-4.94
2018-03-01T18:49:22.641Z,-4.89
2018-03-01T18:51:50.316Z,-5.10
2018-03-01T18:54:18.128Z,-5.09
2018-03-01T18:56:45.779Z,-4.92
2018-03-01T18:59:13.483Z,-4.97
2018-03-01T19:01:41.128Z,-5.03
2018-03-01T19:04:08.846Z,-5.08
2018-03-01T19:06:36.522Z,-5.08
2018-03-01T19:09:04.246Z,-5.06
2018-03-01T19:11:31.899Z,-4.79
2018-03-01T19:13:59.596Z,-4.60
2018-03-01T19:16:27.267Z,-4.72
2018-03-01T19:18:54.990Z,-4.75
2018-03-01T19:21:22.689Z,-4.63
2018-03-01T19:23:50.379Z,-4.81
2018-03-01T19:26:18.077Z,-4.80
2018-03-01T19:28:45.769Z,-4.75
2018-03-01T19:31:13.425Z,-4.66
2018-03-01T19:33:41.136Z,-4.63
2018-03-01T19:36:08.794Z,-5.11
2018-03-01T19:38:36.498Z,-4.77
2018-03-01T19:41:04.152Z,-4.95
2018-03-01T19:43:31.858Z,-4.86
2018-03-01T19:45:59.475Z,-4.82
2018-03-01T19:48:27.138Z,-4.82
2018-03-01T19:50:54.829Z,-4.86
2018-03-01T19:53:22.564Z,-4.50
2018-03-01T19:55:50.219Z,-5.02
2018-03-01T19:58:17.851Z,-4.73
2018-03-01T20:00:45.529Z,-5.06
2018-03-01T20:03:13.209Z,-4.96
2018-03-01T20:05:40.920Z,-5.15
2018-03-01T20:08:08.555Z,-4.78
2018-03-01T20:10:36.260Z,-4.76
2018-03-01T20:13:03.941Z,-5.10
2018-03-01T20:15:31.611Z,-4.89
2018-03-01T20:17:59.280Z,-4.87
2018-03-01T20:20:26.976Z,-5.14
2018-03-01T20:22:54.638Z,-4.77
2018-03-01T20:25:22.346Z,-4.73
2018-03-01T20:27:49.990Z,-5.06
2018-03-01T20:30:17.684Z,-5.14
2018-03-01T20:32:45.340Z,-5.16
2018-03-01T20:35:13.020Z,-5.37
2018-03-01T20:37:40.681Z,-5.40
2018-03-01T20:40:08.389Z,-5.23
2018-03-01T20:42:36.082Z,-5.34
2018-03-01T20:45:03.823Z,-5.20
2018-03-01T20:47:31.486Z,-5.16
2018-03-01T20:49:59.349Z,-5.37
2018-03-01T20:52:27.020Z,-5.24
2018-03-01T20:54:54.747Z,-5.18
2018-03-01T20:57:22.392Z,-5.12
2018-03-01T20:59:50.069Z,-5.31
2018-03-01T21:02:17.703Z,-5.07
2018-03-01T21:04:45.379Z,-5.02
2018-03-01T21:07:13.051Z,-5.33
2018-03-01T21:09:40.720Z,-5.43
2018-03-01T21:12:08.386Z,-5.21
2018-03-01T21:14:36.089Z,-5.10
2018-03-01T21:17:03.782Z,-5.01
2018-03-01T21:19:31.449Z,-5.05
2018-03-01T21:21:59.077Z,-5.10
2018-03-01T21:24:26.752Z,-5.19
2018-03-01T21:26:54.442Z,-5.33
2018-03-01T21:29:22.142Z,-5.71
2018-03-01T21:31:49.765Z,-5.41
2018-03-01T21:34:17.491Z,-5.38
2018-03-01T21:36:45.172Z,-5.47
2018-03-01T21:39:12.796Z,-5.48
2018-03-01T21:41:40.472Z,-5.47
2018-03-01T21:44:08.157Z,-5.41
2018-03-01T21:46:35.835Z,-5.69
2018-03-01T21:49:03.483Z,-5.81
2018-03-01T21:51:31.146Z,-5.58
2018-03-01T21:53:58.793Z,-5.70
2018-03-01T21:56:26.471Z,-5.83
2018-03-01T21:58:54.128Z,-5.81
2018-03-01T22:01:21.820Z,-5.80
2018-03-01T22:03:49.429Z,-5.78
2018-03-01T22:06:17.211Z,-5.76
2018-03-01T22:08:44.875Z,-5.71
2018-03-01T22:11:12.572Z,-5.89
2018-03-01T22:13:40.209Z,-6.05
2018-03-01T22:16:07.900Z,-5.89
2018-03-01T22:18:35.539Z,-5.80
2018-03-01T22:21:03.227Z,-6.07
2018-03-01T22:23:30.888Z,-6.08
2018-03-01T22:25:58.580Z,-6.26
2018-03-01T22:28:26.253Z,-6.19
2018-03-01T22:30:53.947Z,-6.16
2018-03-01T22:33:21.569Z,-6.31
2018-03-01T22:35:49.291Z,-6.35
2018-03-01T22:38:16.918Z,-6.08
2018-03-01T22:40:44.663Z,-6.27
2018-03-01T22:43:12.318Z,-6.23
2018-03-01T22:45:39.992Z,-5.99
2018-03-01T22:48:07.637Z,-6.09
2018-03-01T22:50:35.328Z,-6.17
2018-03-01T22:53:02.989Z,-6.26
2018-03-01T22:55:30.655Z,-6.32
2018-03-01T22:57:58.289Z,-6.39
2018-03-01T23:00:37.889Z,-6.51
2018-03-01T23:03:05.590Z,-6.40
2018-03-01T23:05:33.335Z,-6.32
2018-03-01T23:08:01.021Z,-6.48
2018-03-01T23:10:28.689Z,-6.56
2018-03-01T23:12:56.353Z,-6.60
2018-03-01T23:15:24.016Z,-6.58
2018-03-01T23:17:51.680Z,-6.57
2018-03-01T23:20:19.409Z,-6.76
2018-03-01T23:22:47.048Z,-6.79
2018-03-01T23:25:14.728Z,-6.76
2018-03-01T23:27:42.431Z,-6.84
2018-03-01T23:30:10.141Z,-6.63
2018-03-01T23:32:37.822Z,-6.66
2018-03-01T23:35:05.500Z,-6.86
2018-03-01T23:37:33.167Z,-6.98
2018-03-01T23:40:00.809Z,-6.75
2018-03-01T23:42:28.629Z,-6.95
2018-03-01T23:44:56.261Z,-7.24
2018-03-01T23:47:23.986Z,-7.18
2018-03-01T23:49:51.631Z,-6.97
2018-03-01T23:52:19.314Z,-6.88
2018-03-01T23:54:46.971Z,-6.80
2018-03-01T23:57:14.646Z,-6.90
2018-03-01T23:59:42.274Z,-6.88
